KOMK/OMK METAR and TAF weather

Enter ICAO airport designator
Station Type Date Time Source
KOMK METAR 2020/04/04 10:53 UTC NOAA

KOMK 041053Z AUTO 35009KT 10SM OVC080 00/M08 A2992 RMK AO2 SLP139 T00001083


Station Type Date Time Source
KOMK Decoded METAR 2020/04/04 10:53 UTC NOAA

OMAK AIRPORT, WA, United States (KOMK) 48-28N 119-31W 395M
Apr 04, 2020 - 06:53 AM EDT / 2020.04.04 1053 UTC
Wind: from the N (350 degrees) at 10 MPH (9 KT):0
Visibility: 10 mile(s):0
Sky conditions: overcast
Temperature: 32.0 F (0.0 C)
Windchill: 23 F (-5 C):1
Dew Point: 17.1 F (-8.3 C)
Relative Humidity: 53%
Pressure (altimeter): 29.92 in. Hg (1013 hPa)
ob: KOMK 041053Z AUTO 35009KT 10SM OVC080 00/M08 A2992 RMK AO2 SLP139 T00001083
cycle: 11

Station Type Date Time Source
KOMK TAF UTC NOAA

Error!

Example: see airport list